LSGS 200150Z AUTO 08005KT 9999 FEW130 16/11 Q1027 LSGS 200120Z AUTO 08005KT 9999 NCD 16/11 Q1027 LSGS 200050Z AUTO 11003KT CAVOK 17/11 Q1027 LSGS 200020Z AUTO VRB02KT CAVOK 17/11 Q1027 LSGS 192350Z AUTO 08004KT 040V110 9999 NCD 17/11 Q1027 LSGS 192320Z AUTO 08004KT 9999 FEW120 17/11 Q1027 LSGS 192250Z AUTO 09003KT 070V130 CAVOK 18/11 Q1027 LSGS 192220Z AUTO 07003KT 050V110 CAVOK 18/12 Q1027 LSGS 192150Z AUTO 07004KT CAVOK 19/12 Q1027 LSGS 192120Z AUTO 06006KT CAVOK 20/12 Q1026 LSGS 192050Z AUTO 06005KT 020V100 CAVOK 20/12 Q1026 LSGS 192020Z AUTO 06006KT 030V110 CAVOK 21/12 Q1026 LSGS 191950Z AUTO 07004KT 020V100 CAVOK 21/12 Q1026 LSGS 191920Z AUTO 08008KT CAVOK 21/12 Q1025 LSGS 191850Z AUTO 06008KT 360V110 9999 NCD 23/11 Q1025 LSGS 191820Z AUTO 07006KT 030V100 9999 SCT100 23/11 Q1025 LSGS 191750Z 11004KT 080V160 9999 SCT100 SCT130 24/11 Q1025 LSGS 191720Z 03005KT 330V100 9999 SCT100TCU BKN130 24/11 Q1024 LSGS 191650Z 08003KT 010V170 9999 SCT100CB BKN130 24/11 Q1024 LSGS 191620Z 31008KT 280V350 9999 BKN080CB BKN130 24/12 Q1024 LSGS 191550Z 25013G24KT 200V290 9999 TSRA FEW030 SCT070CB BKN100 24/12 Q1025 LSGS 191520Z 26017G33KT 210V300 9999 SCT080CB BKN130 27/10 Q1023 LSGS 191450Z 26011G22KT 220V310 9999 VCTS SCT100CB BKN150 27/12 Q1021 LSGS 191420Z 26016KT 9999 SCT100TCU 30/12 Q1020 LSGS 191350Z 26013KT 9999 SCT100TCU 31/12 Q1021 LSGS 191320Z 25011KT 9999 SCT100 31/12 Q1021 LSGS 191250Z 26009KT 220V290 9999 SCT100TCU 31/10 Q1021 LSGS 191220Z 20005KT 150V270 9999 SCT100 31/09 Q1021 LSGS 191150Z VRB03KT 9999 SCT100 31/09 Q1022 LSGS 191120Z VRB02KT 9999 SCT100 30/10 Q1022 LSGS 191050Z VRB03KT 9999 SCT100 29/10 Q1023 LSGS 191020Z VRB02KT 9999 FEW100 28/10 Q1023 LSGS 190950Z VRB03KT 9999 FEW100 27/11 Q1024 LSGS 190920Z 11005KT 050V150 9999 FEW100 26/11 Q1024 LSGS 190850Z 06005KT 9999 FEW080 25/11 Q1024 LSGS 190820Z VRB03KT 9999 FEW080 25/11 Q1025 LSGS 190750Z VRB02KT 9999 FEW080 24/11 Q1025 LSGS 190720Z VRB01KT 9999 FEW080 23/11 Q1025 LSGS 190650Z AUTO VRB01KT 9999 FEW075 23/12 Q1025 LSGS 190620Z VRB01KT 9999 FEW080 22/13 Q1025 LSGS 190550Z 00000KT 9999 FEW080 21/13 Q1025 LSGS 190520Z VRB02KT 9999 SCT080 19/13 Q1024 LSGS 190450Z 13003KT 9999 SCT080 19/12 Q1024 LSGS 190420Z AUTO 00000KT 9999 FEW120 18/13 Q1024 LSGS 190350Z AUTO VRB01KT CAVOK 19/12 Q1023 LSGS 190320Z AUTO VRB01KT CAVOK 19/13 Q1023 LSGS 190250Z AUTO VRB02KT CAVOK 19/12 Q1023 LSGS 190220Z AUTO VRB02KT CAVOK 20/13 Q1023 LSGS 190150Z AUTO 00000KT CAVOK 19/14 Q1023 LSGS 190120Z AUTO VRB02KT 9999 NCD 20/13 Q1023 LSGS 190050Z AUTO VRB02KT 9999 NCD 20/15 Q1023 LSGS 190020Z AUTO 00000KT 9999 SCT095 //////TCU 21/14 Q1022 LSGS 182350Z AUTO VRB01KT 9999 BKN140 SCT///CB 21/15 Q1022 LSGS 182320Z AUTO 26003KT 9999 BKN130 20/15 Q1022 LSGS 182250Z AUTO VRB01KT 9999 SCT110 //////TCU 22/14 Q1022 LSGS 182220Z AUTO VRB01KT 9999 FEW075 SCT090 //////TCU 22/13 Q1022 LSGS 182150Z AUTO VRB01KT 9999 FEW090 22/13 Q1021 LSGS 182120Z AUTO VRB02KT 9999 SCT075 23/12 Q1021 LSGS 182050Z AUTO 09003KT CAVOK 24/13 Q1021 LSGS 182020Z AUTO VRB03KT 9999 NCD 24/13 Q1020 LSGS 181950Z AUTO VRB03KT 9999 SCT095 SCT100 24/13 Q1020 LSGS 181920Z AUTO 28006KT 9999 //////TCU 26/13 Q1019 LSGS 181850Z AUTO 26007KT CAVOK 26/13 Q1019 LSGS 181820Z AUTO 28004KT 210V340 CAVOK 27/13 Q1018 LSGS 181750Z 28009KT 250V320 9999 FEW120 27/14 Q1018 LSGS 181720Z 26012KT 9999 FEW130 28/14 Q1017 LSGS 181650Z 25013KT 9999 FEW130 29/14 Q1017 LSGS 181620Z 25012KT 9999 FEW130 30/14 Q1017 LSGS 181550Z 25013KT 9999 FEW130 30/13 Q1017 LSGS 181520Z AUTO 26014KT CAVOK 30/13 Q1017 LSGS 181450Z 26012KT 220V280 9999 FEW130 31/12 Q1018 LSGS 181420Z 26011KT 9999 FEW130 30/12 Q1018

METAR Messwerte "SION (MIL/CIV/AU" LSGS

Zurück zur Übersicht

Ortsname
Ländercode / m ü. NN
Zeit Temperatur Taupunkt Rel.
Luftfeuchte
Luftdruck:
Altimeter
NN
Station
Wind in Beaufort
(Knoten)
Sichtweite
(Meter)
Wolken
(Meter über Grund)
Wettererscheinung
SION (MIL/CIV/AU
CH 482
Fr 20.05. 03:50161172 %1027
1027
970
O 2 (5)>= 10000Leicht bewölkt (4000) 
SION (MIL/CIV/AU
CH 482
Fr 20.05. 03:20161172 %1027
1027
970
O 2 (5)>= 10000  
SION (MIL/CIV/AU
CH 482
Fr 20.05. 02:50171168 %1027
1027
970
OSO 2 (3)>= 10000Nicht signifikant 
SION (MIL/CIV/AU
CH 482
Fr 20.05. 02:20171168 %1027
1027
970
Uml 1 (2)>= 10000Nicht signifikant 
SION (MIL/CIV/AU
CH 482
Fr 20.05. 01:50171168 %1027
1027
970
O 2 (4)
NO - OSO
>= 10000  
SION (MIL/CIV/AU
CH 482
Fr 20.05. 01:20171168 %1027
1027
970
O 2 (4)>= 10000Leicht bewölkt (3700) 
SION (MIL/CIV/AU
CH 482
Fr 20.05. 00:50181164 %1027
1027
970
O 2 (3)
ONO - SO
>= 10000Nicht signifikant 
SION (MIL/CIV/AU
CH 482
Fr 20.05. 00:20181268 %1027
1027
970
ONO 2 (3)
NO - OSO
>= 10000Nicht signifikant 
SION (MIL/CIV/AU
CH 482
Do 19.05. 23:50191264 %1027
1026
970
ONO 2 (4)>= 10000Nicht signifikant 
SION (MIL/CIV/AU
CH 482
Do 19.05. 23:20201260 %1026
1025
969
ONO 2 (6)>= 10000Nicht signifikant 
SION (MIL/CIV/AU
CH 482
Do 19.05. 22:50201260 %1026
1025
969
ONO 2 (5)
NNO - O
>= 10000Nicht signifikant 
SION (MIL/CIV/AU
CH 482
Do 19.05. 22:20211256 %1026
1025
969
ONO 2 (6)
NNO - OSO
>= 10000Nicht signifikant 
SION (MIL/CIV/AU
CH 482
Do 19.05. 21:50211256 %1026
1025
969
ONO 2 (4)
NNO - O
>= 10000Nicht signifikant 
SION (MIL/CIV/AU
CH 482
Do 19.05. 21:20211256 %1025
1024
968
O 3 (8)>= 10000Nicht signifikant 
SION (MIL/CIV/AU
CH 482
Do 19.05. 20:50231147 %1025
1024
968
ONO 3 (8)
N - OSO
>= 10000  
SION (MIL/CIV/AU
CH 482
Do 19.05. 20:20231147 %1025
1024
968
ONO 2 (6)
NNO - O
>= 10000Wolkig (3000) 
SION (MIL/CIV/AU
CH 482
Do 19.05. 19:50241144 %1025
1023
968
OSO 2 (4)
O - SSO
>= 10000Wolkig (4000)
Wolkig (3000)
 
SION (MIL/CIV/AU
CH 482
Do 19.05. 19:20241144 %1024
1022
967
NNO 2 (5)
NNW - O
>= 10000Stark bewölkt (4000)
Wolkig (3000)
 
SION (MIL/CIV/AU
CH 482
Do 19.05. 18:50241144 %1024
1022
967
O 2 (3)
N - S
>= 10000Stark bewölkt (4000)
Wolkig Cb (3000)
 
SION (MIL/CIV/AU
CH 482
Do 19.05. 18:20241247 %1024
1022
967
NW 3 (8)
W - N
>= 10000Stark bewölkt (4000)
Stark bewölkt Cb (2400)
 
SION (MIL/CIV/AU
CH 482
Do 19.05. 17:50241247 %1025
1023
968
WSW 4 (13) - 6 (24)
SSW - WNW
>= 10000Stark bewölkt (3000)
Wolkig Cb (2100)
Leicht bewölkt (910)
Gewitter mit Regen
SION (MIL/CIV/AU
CH 482
Do 19.05. 17:20271034 %1023
1021
966
W 5 (17) - 7 (33)
SSW - WNW
>= 10000Stark bewölkt (4000)
Wolkig Cb (2400)
 
SION (MIL/CIV/AU
CH 482
Do 19.05. 16:50271239 %1021
1019
964
W 4 (11) - 6 (22)
SW - NW
>= 10000Stark bewölkt (4600)
Wolkig Cb (3000)
 
SION (MIL/CIV/AU
CH 482
Do 19.05. 16:20301233 %1020
1017
963
W 5 (16)>= 10000Wolkig (3000) 
SION (MIL/CIV/AU
CH 482
Do 19.05. 15:50311231 %1021
1018
964
W 4 (13)>= 10000Wolkig (3000) 
SION (MIL/CIV/AU
CH 482
Do 19.05. 15:20311231 %1021
1018
964
WSW 4 (11)>= 10000Wolkig (3000) 
SION (MIL/CIV/AU
CH 482
Do 19.05. 14:50311027 %1021
1018
964
W 3 (9)
SW - WNW
>= 10000Wolkig (3000) 
SION (MIL/CIV/AU
CH 482
Do 19.05. 14:2031926 %1021
1018
964
SSW 2 (5)
SSO - W
>= 10000Wolkig (3000) 
SION (MIL/CIV/AU
CH 482
Do 19.05. 13:5031926 %1022
1019
965
Uml 2 (3)>= 10000Wolkig (3000) 
SION (MIL/CIV/AU
CH 482
Do 19.05. 13:20301029 %1022
1019
965
Uml 1 (2)>= 10000Wolkig (3000) 
SION (MIL/CIV/AU
CH 482
Do 19.05. 12:50291031 %1023
1020
966
Uml 2 (3)>= 10000Wolkig (3000) 
SION (MIL/CIV/AU
CH 482
Do 19.05. 12:20281032 %1023
1021
966
Uml 1 (2)>= 10000Leicht bewölkt (3000) 
SION (MIL/CIV/AU
CH 482
Do 19.05. 11:50271137 %1024
1022
967
Uml 2 (3)>= 10000Leicht bewölkt (3000) 
SION (MIL/CIV/AU
CH 482
Do 19.05. 11:20261139 %1024
1022
967
OSO 2 (5)
NO - SSO
>= 10000Leicht bewölkt (3000) 
SION (MIL/CIV/AU
CH 482
Do 19.05. 10:50251141 %1024
1022
967
ONO 2 (5)>= 10000Leicht bewölkt (2400) 
SION (MIL/CIV/AU
CH 482
Do 19.05. 10:20251141 %1025
1023
968
Uml 2 (3)>= 10000Leicht bewölkt (2400) 
SION (MIL/CIV/AU
CH 482
Do 19.05. 09:50241144 %1025
1023
968
Uml 1 (2)>= 10000Leicht bewölkt (2400) 
SION (MIL/CIV/AU
CH 482
Do 19.05. 09:20231147 %1025
1024
968
Uml 1 (1)>= 10000Leicht bewölkt (2400) 
SION (MIL/CIV/AU
CH 482
Do 19.05. 08:50231250 %1025
1024
968
Uml 1 (1)>= 10000Leicht bewölkt (2300) 
SION (MIL/CIV/AU
CH 482
Do 19.05. 08:20221357 %1025
1024
968
Uml 1 (1)>= 10000Leicht bewölkt (2400) 
SION (MIL/CIV/AU
CH 482
Do 19.05. 07:50211360 %1025
1024
968
Windstill>= 10000Leicht bewölkt (2400) 
SION (MIL/CIV/AU
CH 482
Do 19.05. 07:20191368 %1024
1023
967
Uml 1 (2)>= 10000Wolkig (2400) 
SION (MIL/CIV/AU
CH 482
Do 19.05. 06:50191264 %1024
1023
967
SO 2 (3)>= 10000Wolkig (2400) 
SION (MIL/CIV/AU
CH 482
Do 19.05. 06:20181373 %1024
1024
967
Windstill>= 10000Leicht bewölkt (3700) 
SION (MIL/CIV/AU
CH 482
Do 19.05. 05:50191264 %1023
1022
966
Uml 1 (1)>= 10000Nicht signifikant 
SION (MIL/CIV/AU
CH 482
Do 19.05. 05:20191368 %1023
1022
966
Uml 1 (1)>= 10000Nicht signifikant 
SION (MIL/CIV/AU
CH 482
Do 19.05. 04:50191264 %1023
1022
966
Uml 1 (2)>= 10000Nicht signifikant 
SION (MIL/CIV/AU
CH 482
Do 19.05. 04:20201364 %1023
1022
966
Uml 1 (2)>= 10000Nicht signifikant 
SION (MIL/CIV/AU
CH 482
Do 19.05. 03:50191473 %1023
1022
966
Windstill>= 10000Nicht signifikant 
SION (MIL/CIV/AU
CH 482
Do 19.05. 03:20201364 %1023
1022
966
Uml 1 (2)>= 10000  
SION (MIL/CIV/AU
CH 482
Do 19.05. 02:50201573 %1023
1022
966
Uml 1 (2)>= 10000  
SION (MIL/CIV/AU
CH 482
Do 19.05. 02:20211464 %1022
1021
965
Windstill>= 10000Wolkig (2900) 
SION (MIL/CIV/AU
CH 482
Do 19.05. 01:50211569 %1022
1021
965
Uml 1 (1)>= 10000Stark bewölkt (4300) 
SION (MIL/CIV/AU
CH 482
Do 19.05. 01:20201573 %1022
1021
965
W 2 (3)>= 10000Stark bewölkt (4000) 
SION (MIL/CIV/AU
CH 482
Do 19.05. 00:50221460 %1022
1021
965
Uml 1 (1)>= 10000Wolkig (3400) 
SION (MIL/CIV/AU
CH 482
Do 19.05. 00:20221357 %1022
1021
965
Uml 1 (1)>= 10000Wolkig (2700)
Leicht bewölkt (2300)
 
SION (MIL/CIV/AU
CH 482
Mi 18.05. 23:50221357 %1021
1020
964
Uml 1 (1)>= 10000Leicht bewölkt (2700) 
SION (MIL/CIV/AU
CH 482
Mi 18.05. 23:20231250 %1021
1019
964
Uml 1 (2)>= 10000Wolkig (2300) 
SION (MIL/CIV/AU
CH 482
Mi 18.05. 22:50241350 %1021
1019
964
O 2 (3)>= 10000Nicht signifikant 
SION (MIL/CIV/AU
CH 482
Mi 18.05. 22:20241350 %1020
1018
963
Uml 2 (3)>= 10000  
SION (MIL/CIV/AU
CH 482
Mi 18.05. 21:50241350 %1020
1018
963
Uml 2 (3)>= 10000Wolkig (3000)
Wolkig (2900)
 
SION (MIL/CIV/AU
CH 482
Mi 18.05. 21:20261345 %1019
1017
962
W 2 (6)>= 10000  
SION (MIL/CIV/AU
CH 482
Mi 18.05. 20:50261345 %1019
1017
962
W 3 (7)>= 10000Nicht signifikant 
SION (MIL/CIV/AU
CH 482
Mi 18.05. 20:20271342 %1018
1016
961
W 2 (4)
SSW - NNW
>= 10000Nicht signifikant 
SION (MIL/CIV/AU
CH 482
Mi 18.05. 19:50271445 %1018
1016
961
W 3 (9)
WSW - NW
>= 10000Leicht bewölkt (3700) 
SION (MIL/CIV/AU
CH 482
Mi 18.05. 19:20281442 %1017
1015
960
W 4 (12)>= 10000Leicht bewölkt (4000) 
SION (MIL/CIV/AU
CH 482
Mi 18.05. 18:50291440 %1017
1014
960
WSW 4 (13)>= 10000Leicht bewölkt (4000) 
SION (MIL/CIV/AU
CH 482
Mi 18.05. 18:20301438 %1017
1014
960
WSW 4 (12)>= 10000Leicht bewölkt (4000) 
SION (MIL/CIV/AU
CH 482
Mi 18.05. 17:50301335 %1017
1014
960
WSW 4 (13)>= 10000Leicht bewölkt (4000) 
SION (MIL/CIV/AU
CH 482
Mi 18.05. 17:20301335 %1017
1014
960
W 4 (14)>= 10000Nicht signifikant 
SION (MIL/CIV/AU
CH 482
Mi 18.05. 16:50311231 %1018
1015
961
W 4 (12)
SW - W
>= 10000Leicht bewölkt (4000) 
SION (MIL/CIV/AU
CH 482
Mi 18.05. 16:20301233 %1018
1015
961
W 4 (11)>= 10000Leicht bewölkt (4000) 

Altimeter: Einstellung am Altimeter (Höhenmesser), die Höhe 0 muss auf diesen Luftdruckwert zeigen, damit das Gerät die Stationshöhe richtig anzeigt.

NN: Luftdruck reduziert auf "Normal Null", auf Meereshöhe, dieser von der Temperatur abhängige Wert wird bisweilen unkorrekt einfach als "Luftdruck" bezeichnet. Eigentlich nur eine fiktive Größe, die es erlaubt, Stationen auf unterschiedlichen Höhen miteinander zu vergleichen.

Station: Realer Luftdruck an der Station.